This is the latest recevied weather packets stored in our database for station/object TG9SRP-22. If no packets are shown the sender has not sent any weather packets the latest 10 day(s).
| Time | Temp. | Humidity | Pressure | Rain* | Wind** | Luminosity | Snow |
|---|---|---|---|---|---|---|---|
| 1777673067 | 21.11° C | 86% | 1009 hPa | 0 mm | - | - | - |
| 1777672466 | 21.11° C | 75% | 1009 hPa | 0 mm | - | - | - |
| 1777671865 | 21.11° C | 75% | 1009 hPa | 0 mm | - | - | - |
| 1777671265 | 22.22° C | 71% | 1009 hPa | 0 mm | - | - | - |
| 1777670664 | 23.33° C | 67% | 1009 hPa | 0 mm | - | - | - |
| 1777670063 | 24.44° C | 64% | 1009 hPa | 0 mm | - | - | - |
| 1777669463 | 21.67° C | 10% | - | 0 mm | - | - | - |
| 1777668862 | 21.67° C | 10% | - | 0 mm | - | - | - |
| 1777668262 | 21.67° C | 10% | - | 0 mm | - | - | - |
| 1777667661 | 21.67° C | 10% | - | 0 mm | - | - | - |
| 1777667060 | 21.67° C | 10% | - | 0 mm | - | - | - |
| 1777666460 | 22.22° C | 79% | 1010 hPa | 0 mm | - | - | - |
| 1777665859 | 22.78° C | 61% | 1010 hPa | 0 mm | - | - | - |
| 1777665258 | 23.89° C | 57% | 1010 hPa | 0 mm | - | - | - |
| 1777664658 | 22.78° C | 57% | 1010 hPa | 0 mm | - | - | - |
| 1777664057 | 22.78° C | 57% | 1010 hPa | 0 mm | - | - | - |
| 1777663457 | 23.33° C | 58% | 1011 hPa | 0 mm | - | - | - |
| 1777662856 | 23.89° C | 57% | 1011 hPa | 0 mm | - | - | - |
| 1777662255 | 22.78° C | 61% | 1011 hPa | 0 mm | - | - | - |
| 1777661655 | 23.89° C | 57% | 1011 hPa | 0 mm | - | - | - |
| 1777661054 | 22.78° C | 57% | 1011 hPa | 0 mm | - | - | - |
| 1777660453 | 23.33° C | 58% | 1011 hPa | 0 mm | - | - | - |
| 1777659853 | 23.89° C | 57% | 1012 hPa | 0 mm | - | - | - |
| 1777659252 | 22.78° C | 58% | 1012 hPa | 0 mm | - | - | - |
| 1777658652 | 23.33° C | 58% | 1012 hPa | 0 mm | - | - | - |
* Rain latest hour (hover to see other rain measurements)
** Current wind speed in m/s (hover to see current wind gust speed)